sensor_id;sensor_type;location;lat;lon;timestamp;P1;durP1;ratioP1;P2;durP2;ratioP2
79143;SDS011;68551;47.484;19.092;2023-03-20T00:01:51;15.32;;;11.10;;
79143;SDS011;68551;47.484;19.092;2023-03-20T00:04:56;15.30;;;10.30;;
79143;SDS011;68551;47.484;19.092;2023-03-20T00:08:08;16.85;;;11.45;;
79143;SDS011;68551;47.484;19.092;2023-03-20T00:14:34;14.05;;;9.85;;
79143;SDS011;68551;47.484;19.092;2023-03-20T00:17:36;16.65;;;10.10;;
79143;SDS011;68551;47.484;19.092;2023-03-20T00:20:43;17.88;;;10.52;;
79143;SDS011;68551;47.484;19.092;2023-03-20T00:23:47;16.60;;;10.90;;
79143;SDS011;68551;47.484;19.092;2023-03-20T00:26:52;14.52;;;9.55;;
79143;SDS011;68551;47.484;19.092;2023-03-20T00:29:55;13.80;;;9.85;;
79143;SDS011;68551;47.484;19.092;2023-03-20T00:32:59;17.02;;;9.85;;
79143;SDS011;68551;47.484;19.092;2023-03-20T00:36:02;14.57;;;10.18;;
79143;SDS011;68551;47.484;19.092;2023-03-20T00:39:04;16.27;;;10.38;;
79143;SDS011;68551;47.484;19.092;2023-03-20T00:42:13;14.88;;;10.40;;
79143;SDS011;68551;47.484;19.092;2023-03-20T00:45:24;14.07;;;8.85;;
79143;SDS011;68551;47.484;19.092;2023-03-20T00:48:27;14.40;;;9.25;;
79143;SDS011;68551;47.484;19.092;2023-03-20T00:51:30;14.90;;;9.68;;
79143;SDS011;68551;47.484;19.092;2023-03-20T00:54:34;14.88;;;9.73;;
79143;SDS011;68551;47.484;19.092;2023-03-20T00:57:43;16.50;;;9.85;;
79143;SDS011;68551;47.484;19.092;2023-03-20T01:00:49;16.95;;;10.23;;
79143;SDS011;68551;47.484;19.092;2023-03-20T01:03:51;13.90;;;9.25;;
79143;SDS011;68551;47.484;19.092;2023-03-20T01:06:56;15.98;;;10.02;;
79143;SDS011;68551;47.484;19.092;2023-03-20T01:09:59;16.17;;;10.23;;
79143;SDS011;68551;47.484;19.092;2023-03-20T01:13:05;13.93;;;10.25;;
79143;SDS011;68551;47.484;19.092;2023-03-20T01:16:23;13.43;;;9.85;;
79143;SDS011;68551;47.484;19.092;2023-03-20T01:19:27;14.50;;;9.23;;
79143;SDS011;68551;47.484;19.092;2023-03-20T01:22:31;16.42;;;10.18;;
79143;SDS011;68551;47.484;19.092;2023-03-20T01:25:36;13.13;;;10.07;;
79143;SDS011;68551;47.484;19.092;2023-03-20T01:31:49;15.13;;;9.45;;
79143;SDS011;68551;47.484;19.092;2023-03-20T01:34:54;16.50;;;8.88;;
79143;SDS011;68551;47.484;19.092;2023-03-20T01:37:56;15.50;;;9.55;;
79143;SDS011;68551;47.484;19.092;2023-03-20T01:44:27;13.80;;;9.73;;
79143;SDS011;68551;47.484;19.092;2023-03-20T01:47:32;15.02;;;10.00;;
79143;SDS011;68551;47.484;19.092;2023-03-20T01:50:35;14.60;;;9.00;;
79143;SDS011;68551;47.484;19.092;2023-03-20T01:53:46;13.75;;;8.40;;
79143;SDS011;68551;47.484;19.092;2023-03-20T01:56:55;14.52;;;9.73;;
79143;SDS011;68551;47.484;19.092;2023-03-20T02:00:04;13.70;;;9.38;;
79143;SDS011;68551;47.484;19.092;2023-03-20T02:03:18;15.45;;;9.60;;
79143;SDS011;68551;47.484;19.092;2023-03-20T02:06:49;14.52;;;9.32;;
79143;SDS011;68551;47.484;19.092;2023-03-20T02:10:16;12.63;;;8.90;;
79143;SDS011;68551;47.484;19.092;2023-03-20T02:13:29;14.25;;;9.57;;
79143;SDS011;68551;47.484;19.092;2023-03-20T02:16:33;13.55;;;9.18;;
79143;SDS011;68551;47.484;19.092;2023-03-20T02:23:23;12.82;;;8.80;;
79143;SDS011;68551;47.484;19.092;2023-03-20T02:43:37;11.88;;;8.43;;
79143;SDS011;68551;47.484;19.092;2023-03-20T03:12:56;14.45;;;8.25;;
79143;SDS011;68551;47.484;19.092;2023-03-20T03:16:05;14.82;;;9.68;;
79143;SDS011;68551;47.484;19.092;2023-03-20T03:19:12;13.07;;;8.20;;
79143;SDS011;68551;47.484;19.092;2023-03-20T03:22:22;13.43;;;8.82;;
79143;SDS011;68551;47.484;19.092;2023-03-20T03:25:29;13.63;;;9.60;;
79143;SDS011;68551;47.484;19.092;2023-03-20T03:28:42;12.55;;;7.53;;
79143;SDS011;68551;47.484;19.092;2023-03-20T03:31:52;12.65;;;7.97;;
79143;SDS011;68551;47.484;19.092;2023-03-20T03:35:00;13.30;;;9.02;;
79143;SDS011;68551;47.484;19.092;2023-03-20T03:38:17;13.57;;;8.35;;
79143;SDS011;68551;47.484;19.092;2023-03-20T03:44:59;14.48;;;8.18;;
79143;SDS011;68551;47.484;19.092;2023-03-20T03:48:17;11.15;;;7.90;;
79143;SDS011;68551;47.484;19.092;2023-03-20T03:51:27;15.52;;;7.90;;
79143;SDS011;68551;47.484;19.092;2023-03-20T03:54:48;13.85;;;8.82;;
79143;SDS011;68551;47.484;19.092;2023-03-20T04:01:17;12.73;;;8.35;;
79143;SDS011;68551;47.484;19.092;2023-03-20T04:04:21;17.48;;;8.75;;
79143;SDS011;68551;47.484;19.092;2023-03-20T04:07:27;12.20;;;8.90;;
79143;SDS011;68551;47.484;19.092;2023-03-20T04:10:30;16.25;;;8.75;;
79143;SDS011;68551;47.484;19.092;2023-03-20T04:13:32;14.07;;;8.63;;
79143;SDS011;68551;47.484;19.092;2023-03-20T04:16:34;12.98;;;8.18;;
79143;SDS011;68551;47.484;19.092;2023-03-20T04:19:37;16.88;;;8.10;;
79143;SDS011;68551;47.484;19.092;2023-03-20T04:22:40;12.35;;;8.30;;
79143;SDS011;68551;47.484;19.092;2023-03-20T04:25:48;12.48;;;8.57;;
79143;SDS011;68551;47.484;19.092;2023-03-20T04:28:50;14.13;;;8.10;;
79143;SDS011;68551;47.484;19.092;2023-03-20T04:32:10;13.52;;;8.32;;
79143;SDS011;68551;47.484;19.092;2023-03-20T04:35:33;12.43;;;8.30;;
79143;SDS011;68551;47.484;19.092;2023-03-20T04:38:42;9.48;;;7.68;;
79143;SDS011;68551;47.484;19.092;2023-03-20T04:41:45;13.23;;;9.20;;
79143;SDS011;68551;47.484;19.092;2023-03-20T04:44:50;12.45;;;8.27;;
79143;SDS011;68551;47.484;19.092;2023-03-20T04:47:52;15.13;;;8.60;;
79143;SDS011;68551;47.484;19.092;2023-03-20T04:50:56;10.75;;;7.43;;
79143;SDS011;68551;47.484;19.092;2023-03-20T04:54:17;13.60;;;8.52;;
79143;SDS011;68551;47.484;19.092;2023-03-20T04:57:22;12.13;;;7.68;;
79143;SDS011;68551;47.484;19.092;2023-03-20T05:00:27;14.90;;;8.82;;
79143;SDS011;68551;47.484;19.092;2023-03-20T05:03:35;16.45;;;9.68;;
79143;SDS011;68551;47.484;19.092;2023-03-20T05:06:40;14.85;;;8.50;;
79143;SDS011;68551;47.484;19.092;2023-03-20T05:09:44;15.40;;;8.30;;
79143;SDS011;68551;47.484;19.092;2023-03-20T05:12:48;14.77;;;9.45;;
79143;SDS011;68551;47.484;19.092;2023-03-20T05:16:22;18.02;;;9.20;;
79143;SDS011;68551;47.484;19.092;2023-03-20T05:19:51;12.30;;;9.48;;
79143;SDS011;68551;47.484;19.092;2023-03-20T05:23:09;18.77;;;9.07;;
79143;SDS011;68551;47.484;19.092;2023-03-20T05:26:25;13.98;;;8.95;;
79143;SDS011;68551;47.484;19.092;2023-03-20T05:29:49;13.75;;;8.40;;
79143;SDS011;68551;47.484;19.092;2023-03-20T05:33:25;15.27;;;7.95;;
79143;SDS011;68551;47.484;19.092;2023-03-20T05:36:41;12.45;;;8.77;;
79143;SDS011;68551;47.484;19.092;2023-03-20T05:40:09;13.52;;;8.30;;
79143;SDS011;68551;47.484;19.092;2023-03-20T05:43:47;13.88;;;8.98;;
79143;SDS011;68551;47.484;19.092;2023-03-20T05:47:10;13.50;;;9.20;;
79143;SDS011;68551;47.484;19.092;2023-03-20T05:50:35;16.55;;;9.18;;
79143;SDS011;68551;47.484;19.092;2023-03-20T05:53:48;14.32;;;9.10;;
79143;SDS011;68551;47.484;19.092;2023-03-20T05:57:20;15.13;;;8.48;;
79143;SDS011;68551;47.484;19.092;2023-03-20T06:00:26;15.20;;;9.43;;
79143;SDS011;68551;47.484;19.092;2023-03-20T06:03:48;16.38;;;9.40;;
79143;SDS011;68551;47.484;19.092;2023-03-20T06:07:10;17.08;;;9.57;;
79143;SDS011;68551;47.484;19.092;2023-03-20T06:13:22;16.42;;;8.85;;
79143;SDS011;68551;47.484;19.092;2023-03-20T06:16:27;12.07;;;8.57;;
79143;SDS011;68551;47.484;19.092;2023-03-20T06:19:35;14.40;;;9.10;;
79143;SDS011;68551;47.484;19.092;2023-03-20T06:22:37;16.85;;;8.57;;
79143;SDS011;68551;47.484;19.092;2023-03-20T06:25:40;21.10;;;9.45;;
79143;SDS011;68551;47.484;19.092;2023-03-20T06:28:45;12.88;;;9.23;;
79143;SDS011;68551;47.484;19.092;2023-03-20T06:31:49;14.40;;;8.63;;
79143;SDS011;68551;47.484;19.092;2023-03-20T06:35:02;11.60;;;8.20;;
79143;SDS011;68551;47.484;19.092;2023-03-20T06:38:06;12.75;;;9.40;;
79143;SDS011;68551;47.484;19.092;2023-03-20T06:41:09;18.38;;;8.82;;
79143;SDS011;68551;47.484;19.092;2023-03-20T06:44:35;12.90;;;8.52;;
79143;SDS011;68551;47.484;19.092;2023-03-20T06:47:57;14.75;;;9.63;;
79143;SDS011;68551;47.484;19.092;2023-03-20T06:50:59;16.08;;;9.77;;
79143;SDS011;68551;47.484;19.092;2023-03-20T06:54:10;15.70;;;8.75;;
79143;SDS011;68551;47.484;19.092;2023-03-20T06:57:18;13.82;;;8.98;;
79143;SDS011;68551;47.484;19.092;2023-03-20T07:00:22;15.90;;;9.75;;
79143;SDS011;68551;47.484;19.092;2023-03-20T07:03:27;12.93;;;8.57;;
79143;SDS011;68551;47.484;19.092;2023-03-20T07:06:31;15.60;;;9.00;;
79143;SDS011;68551;47.484;19.092;2023-03-20T07:09:34;13.15;;;9.68;;
79143;SDS011;68551;47.484;19.092;2023-03-20T07:12:42;17.42;;;10.40;;
79143;SDS011;68551;47.484;19.092;2023-03-20T07:15:47;14.07;;;9.65;;
79143;SDS011;68551;47.484;19.092;2023-03-20T07:19:10;14.45;;;9.60;;
79143;SDS011;68551;47.484;19.092;2023-03-20T07:22:22;14.02;;;8.95;;
79143;SDS011;68551;47.484;19.092;2023-03-20T07:25:36;13.45;;;9.85;;
79143;SDS011;68551;47.484;19.092;2023-03-20T07:28:49;15.10;;;8.98;;
79143;SDS011;68551;47.484;19.092;2023-03-20T07:31:57;17.08;;;10.25;;
79143;SDS011;68551;47.484;19.092;2023-03-20T07:35:09;13.70;;;9.30;;
79143;SDS011;68551;47.484;19.092;2023-03-20T07:38:16;15.63;;;9.85;;
79143;SDS011;68551;47.484;19.092;2023-03-20T07:41:37;17.83;;;9.35;;
79143;SDS011;68551;47.484;19.092;2023-03-20T07:47:47;13.95;;;8.77;;
79143;SDS011;68551;47.484;19.092;2023-03-20T07:50:52;12.98;;;8.75;;
79143;SDS011;68551;47.484;19.092;2023-03-20T07:53:54;13.70;;;9.00;;
79143;SDS011;68551;47.484;19.092;2023-03-20T07:56:57;13.85;;;8.23;;
79143;SDS011;68551;47.484;19.092;2023-03-20T08:00:04;13.68;;;8.68;;
79143;SDS011;68551;47.484;19.092;2023-03-20T08:03:12;13.00;;;7.53;;
79143;SDS011;68551;47.484;19.092;2023-03-20T08:06:17;13.00;;;8.48;;
79143;SDS011;68551;47.484;19.092;2023-03-20T08:09:25;16.08;;;8.18;;
79143;SDS011;68551;47.484;19.092;2023-03-20T08:12:27;9.75;;;7.35;;
79143;SDS011;68551;47.484;19.092;2023-03-20T08:15:30;13.75;;;7.38;;
79143;SDS011;68551;47.484;19.092;2023-03-20T08:18:35;19.40;;;7.28;;
79143;SDS011;68551;47.484;19.092;2023-03-20T08:21:37;8.88;;;6.60;;
79143;SDS011;68551;47.484;19.092;2023-03-20T08:24:40;10.38;;;7.30;;
79143;SDS011;68551;47.484;19.092;2023-03-20T08:27:43;9.15;;;6.55;;
79143;SDS011;68551;47.484;19.092;2023-03-20T08:30:48;10.93;;;7.07;;
79143;SDS011;68551;47.484;19.092;2023-03-20T08:33:54;13.18;;;6.93;;
79143;SDS011;68551;47.484;19.092;2023-03-20T08:36:59;9.13;;;6.55;;
79143;SDS011;68551;47.484;19.092;2023-03-20T08:40:04;10.40;;;6.85;;
79143;SDS011;68551;47.484;19.092;2023-03-20T08:43:07;9.57;;;6.45;;
79143;SDS011;68551;47.484;19.092;2023-03-20T08:46:12;12.00;;;6.18;;
79143;SDS011;68551;47.484;19.092;2023-03-20T08:49:15;10.38;;;6.68;;
79143;SDS011;68551;47.484;19.092;2023-03-20T08:52:18;9.48;;;6.78;;
79143;SDS011;68551;47.484;19.092;2023-03-20T08:55:22;9.40;;;6.28;;
79143;SDS011;68551;47.484;19.092;2023-03-20T08:58:27;10.45;;;6.90;;
79143;SDS011;68551;47.484;19.092;2023-03-20T09:01:29;13.50;;;7.68;;
79143;SDS011;68551;47.484;19.092;2023-03-20T09:04:52;8.15;;;6.72;;
79143;SDS011;68551;47.484;19.092;2023-03-20T09:07:54;10.10;;;6.70;;
79143;SDS011;68551;47.484;19.092;2023-03-20T09:10:59;9.77;;;6.70;;
79143;SDS011;68551;47.484;19.092;2023-03-20T09:14:01;9.30;;;6.88;;
79143;SDS011;68551;47.484;19.092;2023-03-20T09:17:04;9.05;;;6.13;;
79143;SDS011;68551;47.484;19.092;2023-03-20T09:20:09;11.57;;;6.55;;
79143;SDS011;68551;47.484;19.092;2023-03-20T09:23:17;26.75;;;8.82;;
79143;SDS011;68551;47.484;19.092;2023-03-20T09:26:22;8.60;;;6.38;;
79143;SDS011;68551;47.484;19.092;2023-03-20T09:29:25;11.15;;;6.43;;
79143;SDS011;68551;47.484;19.092;2023-03-20T09:32:28;10.38;;;6.80;;
79143;SDS011;68551;47.484;19.092;2023-03-20T09:35:30;8.73;;;5.97;;
79143;SDS011;68551;47.484;19.092;2023-03-20T09:38:35;8.52;;;6.20;;
79143;SDS011;68551;47.484;19.092;2023-03-20T09:48:07;9.10;;;5.68;;
79143;SDS011;68551;47.484;19.092;2023-03-20T09:54:38;9.40;;;5.55;;
79143;SDS011;68551;47.484;19.092;2023-03-20T09:58:01;10.30;;;5.88;;
79143;SDS011;68551;47.484;19.092;2023-03-20T10:01:13;13.13;;;5.80;;
79143;SDS011;68551;47.484;19.092;2023-03-20T10:04:16;8.32;;;5.60;;
79143;SDS011;68551;47.484;19.092;2023-03-20T10:07:18;8.85;;;5.72;;
79143;SDS011;68551;47.484;19.092;2023-03-20T10:27:48;11.65;;;6.25;;
79143;SDS011;68551;47.484;19.092;2023-03-20T10:41:00;15.02;;;6.95;;
79143;SDS011;68551;47.484;19.092;2023-03-20T10:44:05;11.02;;;6.38;;
79143;SDS011;68551;47.484;19.092;2023-03-20T10:47:33;10.50;;;6.20;;
79143;SDS011;68551;47.484;19.092;2023-03-20T10:50:44;9.23;;;6.43;;
79143;SDS011;68551;47.484;19.092;2023-03-20T10:53:57;8.45;;;6.13;;
79143;SDS011;68551;47.484;19.092;2023-03-20T10:57:04;8.52;;;5.97;;
79143;SDS011;68551;47.484;19.092;2023-03-20T11:00:13;8.35;;;5.93;;
79143;SDS011;68551;47.484;19.092;2023-03-20T11:03:26;12.88;;;6.57;;
79143;SDS011;68551;47.484;19.092;2023-03-20T11:06:35;8.60;;;5.80;;
79143;SDS011;68551;47.484;19.092;2023-03-20T11:16:32;8.60;;;5.70;;
79143;SDS011;68551;47.484;19.092;2023-03-20T11:19:42;9.45;;;6.22;;
79143;SDS011;68551;47.484;19.092;2023-03-20T11:22:45;9.93;;;6.50;;
79143;SDS011;68551;47.484;19.092;2023-03-20T11:26:00;10.63;;;6.38;;
79143;SDS011;68551;47.484;19.092;2023-03-20T11:29:14;9.55;;;6.60;;
79143;SDS011;68551;47.484;19.092;2023-03-20T11:32:40;9.65;;;7.45;;
79143;SDS011;68551;47.484;19.092;2023-03-20T11:35:51;12.00;;;6.63;;
79143;SDS011;68551;47.484;19.092;2023-03-20T11:39:09;9.85;;;6.53;;
79143;SDS011;68551;47.484;19.092;2023-03-20T11:42:21;8.45;;;5.93;;
79143;SDS011;68551;47.484;19.092;2023-03-20T11:45:31;12.73;;;7.15;;
79143;SDS011;68551;47.484;19.092;2023-03-20T11:48:42;13.98;;;7.97;;
79143;SDS011;68551;47.484;19.092;2023-03-20T11:51:49;12.38;;;6.88;;
79143;SDS011;68551;47.484;19.092;2023-03-20T11:54:53;9.98;;;6.88;;
79143;SDS011;68551;47.484;19.092;2023-03-20T11:57:59;10.30;;;7.30;;
79143;SDS011;68551;47.484;19.092;2023-03-20T12:01:07;11.57;;;7.47;;
79143;SDS011;68551;47.484;19.092;2023-03-20T12:10:26;9.73;;;6.55;;
79143;SDS011;68551;47.484;19.092;2023-03-20T12:13:36;12.18;;;7.82;;
79143;SDS011;68551;47.484;19.092;2023-03-20T12:16:45;10.45;;;6.80;;
79143;SDS011;68551;47.484;19.092;2023-03-20T12:19:56;14.23;;;7.05;;
79143;SDS011;68551;47.484;19.092;2023-03-20T12:32:52;11.00;;;7.40;;
79143;SDS011;68551;47.484;19.092;2023-03-20T12:36:04;10.20;;;6.80;;
79143;SDS011;68551;47.484;19.092;2023-03-20T12:39:15;11.98;;;7.22;;
79143;SDS011;68551;47.484;19.092;2023-03-20T12:45:40;10.25;;;6.93;;
79143;SDS011;68551;47.484;19.092;2023-03-20T12:52:12;10.88;;;6.82;;
79143;SDS011;68551;47.484;19.092;2023-03-20T13:02:01;12.55;;;7.13;;
79143;SDS011;68551;47.484;19.092;2023-03-20T13:21:57;11.85;;;7.40;;
79143;SDS011;68551;47.484;19.092;2023-03-20T13:38:19;10.48;;;7.25;;
79143;SDS011;68551;47.484;19.092;2023-03-20T13:41:24;9.82;;;7.40;;
79143;SDS011;68551;47.484;19.092;2023-03-20T13:44:28;13.00;;;7.35;;
79143;SDS011;68551;47.484;19.092;2023-03-20T13:47:38;11.38;;;7.82;;
79143;SDS011;68551;47.484;19.092;2023-03-20T14:00:29;12.43;;;7.80;;
79143;SDS011;68551;47.484;19.092;2023-03-20T14:03:42;12.63;;;7.25;;
79143;SDS011;68551;47.484;19.092;2023-03-20T14:06:48;11.90;;;7.95;;
79143;SDS011;68551;47.484;19.092;2023-03-20T14:09:52;13.13;;;7.70;;
79143;SDS011;68551;47.484;19.092;2023-03-20T14:16:03;14.43;;;7.50;;
79143;SDS011;68551;47.484;19.092;2023-03-20T14:19:20;12.30;;;7.30;;
79143;SDS011;68551;47.484;19.092;2023-03-20T14:22:26;10.25;;;7.00;;
79143;SDS011;68551;47.484;19.092;2023-03-20T14:25:41;11.25;;;6.63;;
79143;SDS011;68551;47.484;19.092;2023-03-20T14:32:20;11.80;;;7.45;;
79143;SDS011;68551;47.484;19.092;2023-03-20T14:35:24;10.15;;;6.40;;
79143;SDS011;68551;47.484;19.092;2023-03-20T14:38:30;12.13;;;6.68;;
79143;SDS011;68551;47.484;19.092;2023-03-20T14:54:34;10.32;;;7.30;;
79143;SDS011;68551;47.484;19.092;2023-03-20T14:57:37;12.80;;;7.93;;
79143;SDS011;68551;47.484;19.092;2023-03-20T15:00:59;11.02;;;7.40;;
79143;SDS011;68551;47.484;19.092;2023-03-20T15:07:16;11.80;;;7.40;;
79143;SDS011;68551;47.484;19.092;2023-03-20T15:10:28;11.32;;;7.05;;
79143;SDS011;68551;47.484;19.092;2023-03-20T15:13:33;9.98;;;7.38;;
79143;SDS011;68551;47.484;19.092;2023-03-20T15:16:37;9.77;;;6.90;;
79143;SDS011;68551;47.484;19.092;2023-03-20T15:19:39;9.85;;;7.05;;
79143;SDS011;68551;47.484;19.092;2023-03-20T15:22:52;12.63;;;8.18;;
79143;SDS011;68551;47.484;19.092;2023-03-20T15:25:59;14.13;;;7.32;;
79143;SDS011;68551;47.484;19.092;2023-03-20T15:29:06;11.90;;;8.00;;
79143;SDS011;68551;47.484;19.092;2023-03-20T15:32:12;13.15;;;7.18;;
79143;SDS011;68551;47.484;19.092;2023-03-20T15:35:18;12.43;;;7.57;;
79143;SDS011;68551;47.484;19.092;2023-03-20T15:38:27;11.05;;;7.57;;
79143;SDS011;68551;47.484;19.092;2023-03-20T15:41:36;12.90;;;6.97;;
79143;SDS011;68551;47.484;19.092;2023-03-20T15:44:47;13.52;;;8.13;;
79143;SDS011;68551;47.484;19.092;2023-03-20T15:47:50;11.50;;;7.30;;
79143;SDS011;68551;47.484;19.092;2023-03-20T15:50:56;11.60;;;7.43;;
79143;SDS011;68551;47.484;19.092;2023-03-20T15:54:03;10.57;;;7.43;;
79143;SDS011;68551;47.484;19.092;2023-03-20T15:57:10;9.40;;;6.88;;
79143;SDS011;68551;47.484;19.092;2023-03-20T16:00:34;11.38;;;6.80;;
79143;SDS011;68551;47.484;19.092;2023-03-20T16:03:42;11.27;;;7.18;;
79143;SDS011;68551;47.484;19.092;2023-03-20T16:06:46;13.35;;;7.78;;
79143;SDS011;68551;47.484;19.092;2023-03-20T16:10:02;10.05;;;6.57;;
79143;SDS011;68551;47.484;19.092;2023-03-20T16:13:18;10.18;;;6.38;;
79143;SDS011;68551;47.484;19.092;2023-03-20T16:16:24;9.73;;;5.68;;
79143;SDS011;68551;47.484;19.092;2023-03-20T16:19:27;7.70;;;6.07;;
79143;SDS011;68551;47.484;19.092;2023-03-20T16:22:30;8.02;;;5.95;;
79143;SDS011;68551;47.484;19.092;2023-03-20T16:25:36;8.57;;;6.22;;
79143;SDS011;68551;47.484;19.092;2023-03-20T16:28:44;9.20;;;6.28;;
79143;SDS011;68551;47.484;19.092;2023-03-20T16:31:52;13.88;;;6.95;;
79143;SDS011;68551;47.484;19.092;2023-03-20T16:34:58;11.00;;;6.07;;
79143;SDS011;68551;47.484;19.092;2023-03-20T16:38:13;9.52;;;6.03;;
79143;SDS011;68551;47.484;19.092;2023-03-20T16:41:31;9.93;;;6.55;;
79143;SDS011;68551;47.484;19.092;2023-03-20T16:44:35;9.93;;;6.15;;
79143;SDS011;68551;47.484;19.092;2023-03-20T16:47:45;13.75;;;7.88;;
79143;SDS011;68551;47.484;19.092;2023-03-20T16:54:25;9.90;;;6.60;;
79143;SDS011;68551;47.484;19.092;2023-03-20T17:00:44;8.48;;;6.22;;
79143;SDS011;68551;47.484;19.092;2023-03-20T17:07:01;9.75;;;6.75;;
79143;SDS011;68551;47.484;19.092;2023-03-20T17:13:19;9.38;;;6.82;;
79143;SDS011;68551;47.484;19.092;2023-03-20T17:16:21;10.18;;;6.78;;
79143;SDS011;68551;47.484;19.092;2023-03-20T17:19:28;9.68;;;7.30;;
79143;SDS011;68551;47.484;19.092;2023-03-20T17:25:35;7.93;;;5.88;;
79143;SDS011;68551;47.484;19.092;2023-03-20T17:28:40;9.02;;;6.35;;
79143;SDS011;68551;47.484;19.092;2023-03-20T17:31:45;9.32;;;6.00;;
79143;SDS011;68551;47.484;19.092;2023-03-20T17:34:48;9.52;;;6.50;;
79143;SDS011;68551;47.484;19.092;2023-03-20T17:37:50;7.93;;;6.32;;
79143;SDS011;68551;47.484;19.092;2023-03-20T17:40:53;7.63;;;6.10;;
79143;SDS011;68551;47.484;19.092;2023-03-20T17:43:55;9.45;;;6.65;;
79143;SDS011;68551;47.484;19.092;2023-03-20T17:47:02;10.20;;;6.60;;
79143;SDS011;68551;47.484;19.092;2023-03-20T17:50:04;11.00;;;6.22;;
79143;SDS011;68551;47.484;19.092;2023-03-20T17:53:15;9.43;;;5.72;;
79143;SDS011;68551;47.484;19.092;2023-03-20T17:56:21;11.10;;;7.57;;
79143;SDS011;68551;47.484;19.092;2023-03-20T17:59:30;8.00;;;6.35;;
79143;SDS011;68551;47.484;19.092;2023-03-20T18:02:35;10.43;;;5.72;;
79143;SDS011;68551;47.484;19.092;2023-03-20T18:05:37;10.63;;;5.40;;
79143;SDS011;68551;47.484;19.092;2023-03-20T18:08:40;8.98;;;5.43;;
79143;SDS011;68551;47.484;19.092;2023-03-20T18:11:45;7.72;;;5.30;;
79143;SDS011;68551;47.484;19.092;2023-03-20T18:14:47;7.22;;;5.35;;
79143;SDS011;68551;47.484;19.092;2023-03-20T18:17:49;8.68;;;5.05;;
79143;SDS011;68551;47.484;19.092;2023-03-20T18:20:54;7.50;;;4.95;;
79143;SDS011;68551;47.484;19.092;2023-03-20T18:24:02;7.03;;;5.15;;
79143;SDS011;68551;47.484;19.092;2023-03-20T18:27:08;7.97;;;5.50;;
79143;SDS011;68551;47.484;19.092;2023-03-20T18:30:16;8.25;;;5.30;;
79143;SDS011;68551;47.484;19.092;2023-03-20T18:33:26;8.25;;;5.68;;
79143;SDS011;68551;47.484;19.092;2023-03-20T18:36:32;7.85;;;5.63;;
79143;SDS011;68551;47.484;19.092;2023-03-20T18:39:40;7.63;;;5.18;;
79143;SDS011;68551;47.484;19.092;2023-03-20T18:42:42;6.55;;;5.32;;
79143;SDS011;68551;47.484;19.092;2023-03-20T18:45:44;11.05;;;6.65;;
79143;SDS011;68551;47.484;19.092;2023-03-20T18:48:50;10.50;;;5.47;;
79143;SDS011;68551;47.484;19.092;2023-03-20T18:51:53;8.00;;;5.28;;
79143;SDS011;68551;47.484;19.092;2023-03-20T18:54:55;9.95;;;6.63;;
79143;SDS011;68551;47.484;19.092;2023-03-20T18:58:00;7.85;;;5.43;;
79143;SDS011;68551;47.484;19.092;2023-03-20T19:01:04;8.50;;;5.32;;
79143;SDS011;68551;47.484;19.092;2023-03-20T19:04:07;10.88;;;5.72;;
79143;SDS011;68551;47.484;19.092;2023-03-20T19:07:14;7.28;;;5.30;;
79143;SDS011;68551;47.484;19.092;2023-03-20T19:10:22;8.20;;;5.78;;
79143;SDS011;68551;47.484;19.092;2023-03-20T19:13:26;10.30;;;6.57;;
79143;SDS011;68551;47.484;19.092;2023-03-20T19:16:35;9.07;;;5.90;;
79143;SDS011;68551;47.484;19.092;2023-03-20T19:19:39;9.73;;;6.13;;
79143;SDS011;68551;47.484;19.092;2023-03-20T19:22:41;9.52;;;5.95;;
79143;SDS011;68551;47.484;19.092;2023-03-20T19:25:44;7.07;;;4.93;;
79143;SDS011;68551;47.484;19.092;2023-03-20T19:28:48;6.82;;;5.15;;
79143;SDS011;68551;47.484;19.092;2023-03-20T19:31:54;8.77;;;5.47;;
79143;SDS011;68551;47.484;19.092;2023-03-20T19:34:59;8.73;;;5.75;;
79143;SDS011;68551;47.484;19.092;2023-03-20T19:38:23;8.40;;;5.55;;
79143;SDS011;68551;47.484;19.092;2023-03-20T19:41:26;7.30;;;4.80;;
79143;SDS011;68551;47.484;19.092;2023-03-20T19:44:29;6.05;;;4.60;;
79143;SDS011;68551;47.484;19.092;2023-03-20T19:47:37;6.55;;;4.75;;
79143;SDS011;68551;47.484;19.092;2023-03-20T19:50:41;6.70;;;5.43;;
79143;SDS011;68551;47.484;19.092;2023-03-20T19:53:47;8.95;;;5.05;;
79143;SDS011;68551;47.484;19.092;2023-03-20T19:56:51;7.25;;;5.35;;
79143;SDS011;68551;47.484;19.092;2023-03-20T19:59:53;7.30;;;5.05;;
79143;SDS011;68551;47.484;19.092;2023-03-20T20:03:19;8.73;;;5.75;;
79143;SDS011;68551;47.484;19.092;2023-03-20T20:06:27;10.23;;;5.45;;
79143;SDS011;68551;47.484;19.092;2023-03-20T20:09:33;8.82;;;5.80;;
79143;SDS011;68551;47.484;19.092;2023-03-20T20:12:38;8.07;;;5.85;;
79143;SDS011;68551;47.484;19.092;2023-03-20T20:18:47;9.85;;;5.68;;
79143;SDS011;68551;47.484;19.092;2023-03-20T20:21:50;7.30;;;6.25;;
79143;SDS011;68551;47.484;19.092;2023-03-20T20:25:12;7.13;;;5.65;;
79143;SDS011;68551;47.484;19.092;2023-03-20T20:28:18;11.55;;;6.20;;
79143;SDS011;68551;47.484;19.092;2023-03-20T20:31:29;9.30;;;6.00;;
79143;SDS011;68551;47.484;19.092;2023-03-20T20:34:32;8.77;;;6.30;;
79143;SDS011;68551;47.484;19.092;2023-03-20T20:37:59;8.40;;;5.57;;
79143;SDS011;68551;47.484;19.092;2023-03-20T20:41:21;10.10;;;6.38;;
79143;SDS011;68551;47.484;19.092;2023-03-20T20:44:24;8.52;;;5.85;;
79143;SDS011;68551;47.484;19.092;2023-03-20T20:47:26;9.15;;;7.05;;
79143;SDS011;68551;47.484;19.092;2023-03-20T20:50:29;8.45;;;6.28;;
79143;SDS011;68551;47.484;19.092;2023-03-20T20:53:36;12.63;;;7.18;;
79143;SDS011;68551;47.484;19.092;2023-03-20T20:56:41;12.05;;;7.47;;
79143;SDS011;68551;47.484;19.092;2023-03-20T20:59:44;11.13;;;7.00;;
79143;SDS011;68551;47.484;19.092;2023-03-20T21:02:47;10.13;;;6.80;;
79143;SDS011;68551;47.484;19.092;2023-03-20T21:05:49;10.68;;;7.20;;
79143;SDS011;68551;47.484;19.092;2023-03-20T21:08:54;9.82;;;7.50;;
79143;SDS011;68551;47.484;19.092;2023-03-20T21:11:59;10.20;;;7.78;;
79143;SDS011;68551;47.484;19.092;2023-03-20T21:15:02;10.65;;;8.10;;
79143;SDS011;68551;47.484;19.092;2023-03-20T21:18:05;10.70;;;7.35;;
79143;SDS011;68551;47.484;19.092;2023-03-20T21:21:09;10.93;;;8.25;;
79143;SDS011;68551;47.484;19.092;2023-03-20T21:24:12;13.45;;;7.68;;
79143;SDS011;68551;47.484;19.092;2023-03-20T21:27:32;10.88;;;7.40;;
79143;SDS011;68551;47.484;19.092;2023-03-20T21:30:36;11.20;;;8.60;;
79143;SDS011;68551;47.484;19.092;2023-03-20T21:34:02;9.60;;;7.32;;
79143;SDS011;68551;47.484;19.092;2023-03-20T21:37:08;10.77;;;7.50;;
79143;SDS011;68551;47.484;19.092;2023-03-20T21:40:30;13.32;;;7.50;;
79143;SDS011;68551;47.484;19.092;2023-03-20T21:43:32;10.07;;;7.32;;
79143;SDS011;68551;47.484;19.092;2023-03-20T21:46:35;8.05;;;6.65;;
79143;SDS011;68551;47.484;19.092;2023-03-20T21:50:00;10.55;;;6.13;;
79143;SDS011;68551;47.484;19.092;2023-03-20T21:53:22;9.95;;;6.00;;
79143;SDS011;68551;47.484;19.092;2023-03-20T21:56:44;8.43;;;5.70;;
79143;SDS011;68551;47.484;19.092;2023-03-20T22:00:10;9.30;;;6.07;;
79143;SDS011;68551;47.484;19.092;2023-03-20T22:03:36;8.52;;;5.97;;
79143;SDS011;68551;47.484;19.092;2023-03-20T22:07:01;7.00;;;5.30;;
79143;SDS011;68551;47.484;19.092;2023-03-20T22:10:25;9.50;;;5.38;;
79143;SDS011;68551;47.484;19.092;2023-03-20T22:13:52;7.50;;;5.22;;